map of VLL home
VLL - Airport
Location
City:  Valladolid, Castille and León, Spain
ICAO:LEVD
IATA:VLL

Details
Type:Airport (Aerodrome, Airfield)
Use:Public/Civil, Military
Latitude:41°42'22"N (41.706111)
Longitude:4°51'07"W (-4.851943)
Datum:WGS 1984
Elevation:2775 ft (846 m)
Variation:0.99°W (WMM2015 magnetic declination)
0.12° annual change
Runways:2
Longest:9843 × 197 ft (3000 × 60 m), paved

Time
Time Zone:UTC+1 (DST+2)
Local Time:

Weather
METAR:LEVD 172030Z 28006KT 8000 BKN040 01/M00 Q1020
TAF:LEVD 180500Z 1806/1906 VRB05KT CAVOK TX05/1815Z TNM05/1806Z
TEMPO 1806/1810 3000 BR BKN006 PROB40
TEMPO 1806/1809 0150 FZFG VV001
BECMG 1809/1810 22008KT PROB30 1812/1818 RASN BKN012
BECMG 1900/1902 9999 BKN007

Related Locations
Nearby:
Farthest:WLG: 12401 mi / 19957 km
Wellington [Intl], WGN, NZ

Find:

   beyond  
but within

Other Information
Maps:
NOTAMs:
Links:
Sources:

  
  • flag of Spain
  • flag of Castille and León
  

Sectional Chart

Flight Planning
at skyvector.com

Satellite Image

Google Maps Satellite view

 

Copyright © 2004-2019 Karl L. Swartz. All rights reserved.
The Great Circle Mapper name and logo are trademarks of the Great Circle Mapper.
All other trademarks mentioned herein belong to their respective owners.
Please see credits for attibutions and further copyright information.

  Follow gcmap on Facebook Follow gcmap on Twitter Follow gcmap on Google+ GCmap on LinkedIn

hCard Microformat

Geo Microformat